Time;durP1;ratioP1;P1;durP2;ratioP2;P2;SDS_P1;SDS_P2;PMS_P1;PMS_P2;Temp;Humidity;BMP_temperature;BMP_pressure;BME280_temperature;BME280_humidity;BME280_pressure;Samples;Min_cycle;Max_cycle;Signal;HPM_P1;HPM_P2
2022/01/11 00:01:29;;;;;;;67.15;23.00;;;;;;;0.50;100.00;103013.56;5287899;28;20100;-70
2022/01/11 00:04:00;;;;;;;67.35;22.23;;;;;;;0.48;100.00;103002.19;5288325;28;20023;-70
2022/01/11 00:06:37;;;;;;;60.85;21.92;;;;;;;0.42;100.00;103003.25;5267106;28;20061;-70
2022/01/11 00:09:19;;;;;;;64.78;23.73;;;;;;;0.46;100.00;103002.25;5271270;28;20115;-70
2022/01/11 00:11:50;;;;;;;63.45;22.55;;;;;;;0.44;100.00;103008.47;5278015;28;20034;-70
2022/01/11 00:14:21;;;;;;;63.75;22.27;;;;;;;0.39;100.00;103011.25;5287989;28;20504;-70
2022/01/11 00:16:51;;;;;;;59.70;20.90;;;;;;;0.36;100.00;103002.59;5281933;28;20051;-70
2022/01/11 00:19:22;;;;;;;54.53;20.65;;;;;;;0.34;100.00;102996.47;5288087;28;20020;-71
2022/01/11 00:21:52;;;;;;;68.18;20.73;;;;;;;0.34;100.00;102999.97;5288025;28;20450;-70
2022/01/11 00:27:11;;;;;;;60.03;21.00;;;;;;;0.32;100.00;103004.47;5284010;28;20020;-70
2022/01/11 00:29:45;;;;;;;63.50;22.58;;;;;;;0.35;100.00;102993.81;5278216;28;20027;-70
2022/01/11 00:32:22;;;;;;;65.05;20.55;;;;;;;0.35;100.00;103001.75;5268496;28;20050;-70
2022/01/11 00:34:55;;;;;;;59.28;19.48;;;;;;;0.35;100.00;103006.13;5266530;28;20374;-70
2022/01/11 00:37:27;;;;;;;68.47;22.00;;;;;;;0.28;100.00;102999.31;5275312;28;20027;-70
2022/01/11 00:40:00;;;;;;;70.07;22.15;;;;;;;0.31;100.00;103002.75;5271678;28;20052;-71
2022/01/11 00:42:32;;;;;;;65.32;21.48;;;;;;;0.33;100.00;102997.41;5267099;28;20426;-71
2022/01/11 00:45:17;;;;;;;58.65;22.20;;;;;;;0.34;100.00;103005.25;5265746;28;20031;-70
2022/01/11 00:47:48;;;;;;;71.18;22.42;;;;;;;0.28;100.00;102999.31;5266473;28;20027;-70
2022/01/11 00:50:18;;;;;;;62.58;20.42;;;;;;;0.27;100.00;102995.81;5273607;28;20020;-71
2022/01/11 00:52:49;;;;;;;63.17;20.55;;;;;;;0.30;100.00;103000.13;5286029;28;20429;-71
2022/01/11 00:55:20;;;;;;;64.35;20.33;;;;;;;0.29;100.00;103014.25;5266003;28;20016;-71
2022/01/11 00:57:50;;;;;;;64.50;22.60;;;;;;;0.26;100.00;103007.28;5266198;28;20178;-73
2022/01/11 01:00:21;;;;;;;67.97;21.95;;;;;;;0.25;100.00;103016.09;5266233;28;20501;-72
2022/01/11 01:02:51;;;;;;;67.50;21.42;;;;;;;0.22;100.00;103025.00;5269811;28;20034;-72
2022/01/11 01:05:22;;;;;;;75.90;22.42;;;;;;;0.22;100.00;103017.06;5286890;28;20024;-70
2022/01/11 01:07:53;;;;;;;73.32;24.08;;;;;;;0.20;100.00;103024.19;5286666;28;20031;-70
2022/01/11 01:13:14;;;;;;;55.20;20.58;;;;;;;0.16;100.00;103019.91;5265366;28;20024;-70
2022/01/11 01:15:47;;;;;;;56.85;19.35;;;;;;;0.17;100.00;103020.78;5276041;28;20434;-71
2022/01/11 01:18:21;;;;;;;65.40;20.33;;;;;;;0.17;100.00;103018.13;5286567;28;20047;-70
2022/01/11 01:20:53;;;;;;;62.40;20.77;;;;;;;0.11;100.00;103024.47;5281128;28;20063;-70
2022/01/11 01:23:24;;;;;;;66.18;20.15;;;;;;;0.08;100.00;103023.69;5266149;28;20115;-71
2022/01/11 01:25:55;;;;;;;63.05;20.42;;;;;;;0.05;100.00;103027.28;5265497;28;20103;-71
2022/01/11 01:28:26;;;;;;;62.80;21.20;;;;;;;0.01;100.00;103030.91;5280090;28;20084;-71
2022/01/11 01:31:00;;;;;;;62.90;20.33;;;;;;;-0.02;100.00;103033.63;5277880;28;20024;-71
2022/01/11 01:33:33;;;;;;;63.13;22.17;;;;;;;-0.05;100.00;103029.31;5281876;28;20234;-71
2022/01/11 01:36:10;;;;;;;64.38;20.95;;;;;;;-0.07;100.00;103032.91;5274950;28;20270;-70
2022/01/11 01:38:41;;;;;;;51.08;19.77;;;;;;;-0.12;100.00;103033.03;5265163;28;20024;-70
2022/01/11 01:41:16;;;;;;;65.28;21.20;;;;;;;-0.17;100.00;103040.22;5264980;28;20035;-70
2022/01/11 01:43:51;;;;;;;62.70;21.48;;;;;;;-0.20;100.00;103047.34;5265595;28;20032;-70
2022/01/11 01:46:22;;;;;;;58.65;19.52;;;;;;;-0.30;100.00;103034.44;5265058;28;20028;-70
2022/01/11 01:48:55;;;;;;;58.45;18.13;;;;;;;-0.36;100.00;103024.03;5274118;28;20027;-70
2022/01/11 01:51:26;;;;;;;54.13;18.05;;;;;;;-0.37;100.00;103030.22;5269698;28;20032;-70
2022/01/11 01:53:57;;;;;;;56.08;19.35;;;;;;;-0.41;100.00;103036.47;5265030;28;20027;-70
2022/01/11 01:56:28;;;;;;;55.55;20.42;;;;;;;-0.39;100.00;103044.38;5282869;28;20114;-70
2022/01/11 01:58:58;;;;;;;69.57;21.30;;;;;;;-0.40;100.00;103047.91;5286419;28;20058;-70
2022/01/11 02:01:32;;;;;;;61.13;22.48;;;;;;;-0.41;100.00;103047.03;5285912;28;20019;-70
2022/01/11 02:04:02;;;;;;;68.53;21.38;;;;;;;-0.41;100.00;103054.94;5272901;28;20491;-70
2022/01/11 02:06:33;;;;;;;69.15;19.98;;;;;;;-0.42;100.00;103058.50;5264800;28;20028;-71
2022/01/11 02:09:07;;;;;;;61.50;21.42;;;;;;;-0.42;100.00;103060.28;5283356;28;20059;-71
2022/01/11 02:11:38;;;;;;;61.70;20.63;;;;;;;-0.43;100.00;103064.69;5265207;28;20058;-70
2022/01/11 02:14:09;;;;;;;63.00;19.40;;;;;;;-0.48;100.00;103061.31;5264562;28;20016;-71
2022/01/11 02:16:40;;;;;;;56.55;19.25;;;;;;;-0.51;100.00;103064.00;5276281;28;20107;-70
2022/01/11 02:19:10;;;;;;;58.72;19.10;;;;;;;-0.52;100.00;103067.56;5280764;28;20111;-71
2022/01/11 02:21:41;;;;;;;55.13;18.48;;;;;;;-0.54;100.00;103066.75;5277546;28;20050;-71
2022/01/11 02:24:12;;;;;;;55.42;18.98;;;;;;;-0.56;100.00;103063.28;5277504;28;20062;-71
2022/01/11 02:26:56;;;;;;;47.67;16.93;;;;;;;-0.58;100.00;103058.03;5278303;28;20027;-71
2022/01/11 02:29:28;;;;;;;55.13;19.42;;;;;;;-0.60;100.00;103078.31;5274299;28;20152;-71
2022/01/11 02:31:58;;;;;;;50.38;18.15;;;;;;;-0.60;100.00;103069.56;5285856;28;20039;-71
2022/01/11 02:34:28;;;;;;;60.67;19.50;;;;;;;-0.63;100.00;103070.47;5285629;28;20350;-70
2022/01/11 02:36:59;;;;;;;65.75;19.20;;;;;;;-0.63;100.00;103072.25;5267102;28;20028;-70
2022/01/11 02:39:29;;;;;;;53.92;18.00;;;;;;;-0.73;100.00;103076.03;5264145;28;20043;-70
2022/01/11 02:42:01;;;;;;;69.13;18.92;;;;;;;-0.79;100.00;103082.34;5283835;28;20413;-71
2022/01/11 02:44:33;;;;;;;70.22;21.52;;;;;;;-0.84;100.00;103079.81;5271296;28;20020;-71
2022/01/11 02:47:04;;;;;;;69.18;21.52;;;;;;;-0.85;100.00;103086.00;5264886;28;20034;-70
2022/01/11 02:49:35;;;;;;;67.50;20.60;;;;;;;-0.88;100.00;103086.06;5264695;28;20173;-70
2022/01/11 02:52:06;;;;;;;62.33;20.95;;;;;;;-0.88;100.00;103078.16;5264168;28;20106;-70
2022/01/11 02:54:41;;;;;;;71.60;22.27;;;;;;;-0.92;100.00;103081.75;5280314;28;20020;-70
2022/01/11 02:57:12;;;;;;;72.53;21.60;;;;;;;-0.92;100.00;103083.53;5274405;28;20464;-71
2022/01/11 02:59:43;;;;;;;51.42;16.95;;;;;;;-0.96;100.00;103074.81;5282642;28;20023;-71
2022/01/11 03:02:13;;;;;;;56.75;20.50;;;;;;;-0.99;100.00;103085.47;5272833;28;20024;-72
2022/01/11 03:04:44;;;;;;;67.47;20.60;;;;;;;-0.95;100.00;103081.00;5263322;28;20020;-72
2022/01/11 03:07:30;;;;;;;69.78;23.05;;;;;;;-0.94;100.00;103086.22;5268115;28;20026;-71
2022/01/11 03:10:13;;;;;;;61.33;19.77;;;;;;;-0.95;100.00;103078.34;5264506;28;20040;-71
2022/01/11 03:12:44;;;;;;;78.60;22.08;;;;;;;-0.96;100.00;103093.25;5282293;28;20020;-71
2022/01/11 03:15:15;;;;;;;78.65;23.13;;;;;;;-0.93;100.00;103089.72;5278968;28;20046;-71
2022/01/11 03:17:46;;;;;;;78.13;23.17;;;;;;;-0.92;100.00;103089.66;5277610;28;20023;-71
2022/01/11 03:20:17;;;;;;;71.20;22.30;;;;;;;-0.89;100.00;103088.72;5263731;28;20019;-71
2022/01/11 03:22:48;;;;;;;72.13;21.02;;;;;;;-0.88;100.00;103088.69;5272247;28;20023;-71
2022/01/11 03:25:18;;;;;;;73.40;21.35;;;;;;;-0.88;100.00;103087.81;5270652;28;20107;-70
2022/01/11 03:27:49;;;;;;;74.28;21.48;;;;;;;-0.89;100.00;103081.69;5276074;28;20032;-71
2022/01/11 03:30:19;;;;;;;65.90;22.33;;;;;;;-0.89;100.00;103081.69;5277315;28;20111;-71
2022/01/11 03:32:50;;;;;;;67.70;22.92;;;;;;;-0.90;100.00;103079.97;5274078;28;20520;-71
2022/01/11 03:35:23;;;;;;;67.35;21.63;;;;;;;-0.91;100.00;103083.47;5269149;28;20020;-71
2022/01/11 03:37:53;;;;;;;63.88;21.30;;;;;;;-0.94;100.00;103070.41;5273114;28;20058;-71
2022/01/11 03:40:26;;;;;;;59.72;20.83;;;;;;;-0.96;100.00;103079.22;5263451;28;20020;-71
2022/01/11 03:42:57;;;;;;;75.38;22.95;;;;;;;-0.99;100.00;103077.56;5276081;28;20408;-71
2022/01/11 03:45:28;;;;;;;66.30;20.80;;;;;;;-1.00;100.00;103083.72;5270595;28;20023;-71
2022/01/11 03:48:00;;;;;;;65.88;20.08;;;;;;;-1.02;100.00;103082.88;5271109;28;20082;-70
2022/01/11 03:50:31;;;;;;;55.10;18.88;;;;;;;-1.02;100.00;103085.53;5284224;28;20433;-71
2022/01/11 03:58:38;;;;;;;52.65;18.00;;;;;;;-1.15;100.00;103097.28;5263578;28;20123;-71
2022/01/11 04:01:08;;;;;;;56.15;18.73;;;;;;;-1.18;100.00;103092.94;5279777;28;20111;-70
2022/01/11 04:03:39;;;;;;;58.88;19.35;;;;;;;-1.21;100.00;103087.72;5284458;28;20031;-70
2022/01/11 04:06:09;;;;;;;54.92;19.08;;;;;;;-1.21;100.00;103089.47;5270275;28;20028;-70
2022/01/11 04:08:40;;;;;;;62.17;19.83;;;;;;;-1.24;100.00;103090.44;5272863;28;20024;-70
2022/01/11 04:11:11;;;;;;;61.15;20.33;;;;;;;-1.26;100.00;103101.91;5267997;28;20258;-70
2022/01/11 04:13:42;;;;;;;57.15;18.45;;;;;;;-1.23;100.00;103101.84;5284192;28;20024;-70
2022/01/11 04:16:12;;;;;;;57.58;18.80;;;;;;;-1.24;100.00;103100.97;5277922;28;20386;-70
2022/01/11 04:18:43;;;;;;;56.38;19.08;;;;;;;-1.24;100.00;103115.91;5269193;27;20020;-70
2022/01/11 04:21:13;;;;;;;52.72;18.05;;;;;;;-1.30;100.00;103114.28;5263439;28;20024;-70
2022/01/11 04:23:44;;;;;;;55.00;17.67;;;;;;;-1.34;100.00;103109.97;5262745;28;20024;-70
2022/01/11 04:26:15;;;;;;;64.45;19.50;;;;;;;-1.36;100.00;103110.00;5263094;28;20026;-70
2022/01/11 04:28:45;;;;;;;59.42;19.67;;;;;;;-1.38;100.00;103103.91;5280730;28;20028;-69
2022/01/11 04:31:16;;;;;;;51.80;17.30;;;;;;;-1.42;100.00;103102.25;5273101;28;20564;-70
2022/01/11 04:33:46;;;;;;;49.85;16.05;;;;;;;-1.51;100.00;103096.31;5281763;28;20027;-69
2022/01/11 04:36:17;;;;;;;54.30;16.25;;;;;;;-1.33;100.00;103094.13;5270656;28;20020;-70
2022/01/11 04:38:47;;;;;;;56.70;18.20;;;;;;;-1.33;100.00;103098.53;5269084;28;20461;-70
2022/01/11 04:41:19;;;;;;;61.88;18.38;;;;;;;-1.35;100.00;103100.38;5282709;28;20106;-70
2022/01/11 04:43:49;;;;;;;60.83;19.10;;;;;;;-1.34;100.00;103097.69;5283890;28;20023;-70
2022/01/11 04:46:20;;;;;;;62.42;19.40;;;;;;;-1.34;100.00;103105.59;5284152;28;20027;-70
2022/01/11 04:48:50;;;;;;;57.65;17.85;;;;;;;-1.27;100.00;103110.69;5275522;28;20024;-70
2022/01/11 04:51:24;;;;;;;69.10;20.10;;;;;;;-1.26;100.00;103110.66;5274288;28;20027;-70
2022/01/11 04:53:55;;;;;;;69.78;21.27;;;;;;;-1.23;100.00;103102.69;5287964;28;20398;-70
2022/01/11 04:56:26;;;;;;;58.60;18.75;;;;;;;-1.20;100.00;103101.78;5273617;28;20035;-69
2022/01/11 04:58:57;;;;;;;62.53;18.60;;;;;;;-1.21;100.00;103098.25;5275523;28;20032;-70
2022/01/11 05:01:30;;;;;;;55.97;17.10;;;;;;;-1.21;100.00;103100.88;5271384;28;20027;-70
2022/01/11 05:04:00;;;;;;;55.97;17.23;;;;;;;-1.21;100.00;103100.03;5273561;27;20034;-70
2022/01/11 05:06:31;;;;;;;58.78;18.83;;;;;;;-1.20;100.00;103093.88;5287441;28;20023;-70
2022/01/11 05:09:02;;;;;;;62.67;18.00;;;;;;;-1.18;100.00;103098.19;5271791;28;20035;-71
2022/01/11 05:11:33;;;;;;;62.90;17.60;;;;;;;-1.18;100.00;103100.81;5266175;28;20036;-71
2022/01/11 05:14:03;;;;;;;67.00;18.58;;;;;;;-1.16;100.00;103104.28;5266041;28;20042;-70
2022/01/11 05:16:34;;;;;;;51.08;17.17;;;;;;;-1.14;100.00;103104.25;5276320;28;20480;-70
2022/01/11 05:19:07;;;;;;;59.17;17.05;;;;;;;-1.10;100.00;103103.28;5282648;28;20366;-69
2022/01/11 05:21:37;;;;;;;57.60;17.63;;;;;;;-1.08;100.00;103091.81;5278363;28;20027;-69
2022/01/11 05:24:09;;;;;;;59.83;18.23;;;;;;;-1.02;100.00;103090.78;5280616;28;20500;-70
2022/01/11 05:26:39;;;;;;;56.85;18.65;;;;;;;-0.98;100.00;103088.94;5266100;28;20032;-70
2022/01/11 05:29:10;;;;;;;54.10;18.08;;;;;;;-0.98;100.00;103092.44;5285445;28;20503;-70
2022/01/11 05:31:40;;;;;;;58.63;18.30;;;;;;;-0.95;100.00;103097.66;5272043;28;20028;-69
2022/01/11 05:34:11;;;;;;;70.15;19.33;;;;;;;-0.95;100.00;103091.53;5265486;28;20020;-70
2022/01/11 05:36:41;;;;;;;62.08;17.40;;;;;;;-0.96;100.00;103093.25;5267721;28;20497;-70
2022/01/11 05:39:12;;;;;;;55.53;17.20;;;;;;;-0.96;100.00;103092.41;5286574;28;20465;-69
2022/01/11 05:41:42;;;;;;;54.13;17.80;;;;;;;-0.98;100.00;103105.63;5269460;28;20582;-70
2022/01/11 05:44:13;;;;;;;56.72;17.33;;;;;;;-0.94;100.00;103115.19;5265469;28;20030;-71
2022/01/11 05:46:43;;;;;;;60.75;18.13;;;;;;;-0.93;100.00;103121.34;5280239;28;20028;-71
2022/01/11 05:49:14;;;;;;;55.33;18.42;;;;;;;-0.93;100.00;103119.56;5278147;28;20114;-71
2022/01/11 05:51:44;;;;;;;54.83;18.23;;;;;;;-0.91;100.00;103122.16;5266756;28;20028;-72
2022/01/11 05:54:15;;;;;;;58.13;17.30;;;;;;;-0.89;100.00;103123.00;5278979;28;20026;-71
2022/01/11 05:56:45;;;;;;;55.97;16.95;;;;;;;-0.91;100.00;103124.78;5273241;28;20023;-71
2022/01/11 05:59:17;;;;;;;58.42;17.40;;;;;;;-0.92;100.00;103120.41;5270906;28;20020;-70
2022/01/11 06:01:47;;;;;;;48.80;16.33;;;;;;;-0.93;100.00;103127.47;5274229;28;20023;-73
2022/01/11 06:04:18;;;;;;;61.30;19.40;;;;;;;-0.93;100.00;103130.09;5272470;28;20043;-72
2022/01/11 06:06:48;;;;;;;61.95;17.95;;;;;;;-0.95;100.00;103134.56;5286070;27;20026;-73
2022/01/11 06:09:19;;;;;;;52.90;16.40;;;;;;;-0.98;100.00;103129.34;5269768;28;20035;-73
2022/01/11 06:11:49;;;;;;;51.10;16.30;;;;;;;-1.02;100.00;103121.53;5277009;28;20020;-72
2022/01/11 06:14:20;;;;;;;52.92;16.60;;;;;;;-1.08;100.00;103133.97;5271941;27;20035;-72
2022/01/11 06:16:51;;;;;;;53.72;17.05;;;;;;;-1.09;100.00;103141.91;5280105;28;20023;-72
2022/01/11 06:19:21;;;;;;;55.35;17.95;;;;;;;-1.11;100.00;103143.69;5278914;28;20473;-72
2022/01/11 06:21:52;;;;;;;58.92;16.40;;;;;;;-1.12;100.00;103141.97;5279029;28;20024;-72
2022/01/11 06:24:22;;;;;;;50.92;17.52;;;;;;;-1.14;100.00;103146.41;5266266;28;20094;-73
2022/01/11 06:26:53;;;;;;;59.45;15.88;;;;;;;-1.15;100.00;103142.06;5278096;28;20092;-72
2022/01/11 06:29:23;;;;;;;51.75;15.25;;;;;;;-1.13;100.00;103145.50;5265114;28;20027;-71
2022/01/11 06:31:54;;;;;;;47.28;16.60;;;;;;;-1.10;100.00;103155.97;5281976;28;20023;-73
2022/01/11 06:34:24;;;;;;;55.05;17.30;;;;;;;-1.11;100.00;103154.22;5285847;28;20487;-72
2022/01/11 06:36:56;;;;;;;50.08;16.13;;;;;;;-1.14;100.00;103159.59;5267654;28;20166;-72
2022/01/11 06:39:27;;;;;;;44.45;16.00;;;;;;;-1.21;100.00;103156.19;5277165;28;20011;-72
2022/01/11 06:41:57;;;;;;;47.95;16.33;;;;;;;-1.27;100.00;103163.38;5279333;28;20377;-72
2022/01/11 06:44:28;;;;;;;43.05;15.27;;;;;;;-1.35;100.00;103167.06;5278213;28;20104;-72
2022/01/11 06:46:58;;;;;;;42.03;14.70;;;;;;;-1.39;100.00;103175.91;5285526;28;20102;-72
2022/01/11 06:49:29;;;;;;;44.63;15.10;;;;;;;-1.41;100.00;103180.34;5284009;28;20051;-72
2022/01/11 06:51:59;;;;;;;42.60;14.57;;;;;;;-1.44;100.00;103185.69;5272581;28;20535;-72
2022/01/11 06:54:30;;;;;;;53.70;15.90;;;;;;;-1.45;100.00;103180.47;5282853;28;20488;-72
2022/01/11 06:57:01;;;;;;;48.78;16.23;;;;;;;-1.44;100.00;103179.53;5264253;28;20099;-72
2022/01/11 06:59:31;;;;;;;54.00;17.05;;;;;;;-1.43;100.00;103182.13;5281581;28;20027;-72
2022/01/11 07:02:03;;;;;;;50.47;17.13;;;;;;;-1.41;100.00;103182.09;5285020;28;20042;-72
2022/01/11 07:04:34;;;;;;;54.95;15.82;;;;;;;-1.40;100.00;103184.72;5280145;28;20016;-72
2022/01/11 07:07:06;;;;;;;56.10;17.02;;;;;;;-1.38;100.00;103185.53;5266308;28;20369;-72
2022/01/11 07:09:37;;;;;;;62.50;18.83;;;;;;;-1.36;100.00;103193.41;5263619;28;20120;-72
2022/01/11 07:12:08;;;;;;;62.22;17.92;;;;;;;-1.31;100.00;103196.81;5277910;28;20141;-72
2022/01/11 07:14:39;;;;;;;58.67;16.73;;;;;;;-1.26;100.00;103196.72;5270447;28;20015;-72
2022/01/11 07:17:09;;;;;;;62.40;19.75;;;;;;;-1.25;100.00;103198.47;5277619;28;20393;-73
2022/01/11 07:19:40;;;;;;;54.72;16.23;;;;;;;-1.29;100.00;103191.53;5273602;28;20099;-72
2022/01/11 07:22:10;;;;;;;47.05;15.10;;;;;;;-1.34;100.00;103191.63;5271581;28;20027;-72
2022/01/11 07:24:41;;;;;;;48.45;14.88;;;;;;;-1.31;100.00;103194.16;5274005;28;20102;-71
2022/01/11 07:27:12;;;;;;;51.72;15.10;;;;;;;-1.26;100.00;103192.31;5277391;28;20032;-71
2022/01/11 07:29:42;;;;;;;54.13;16.90;;;;;;;-1.21;100.00;103200.13;5275740;28;20062;-71
2022/01/11 07:32:13;;;;;;;50.22;16.00;;;;;;;-1.13;100.00;103199.06;5284505;28;20387;-72
2022/01/11 07:34:44;;;;;;;50.47;17.42;;;;;;;-1.05;100.00;103197.13;5271288;28;20016;-71
2022/01/11 07:37:14;;;;;;;57.53;17.20;;;;;;;-0.95;100.00;103196.94;5277087;28;20111;-71
2022/01/11 07:39:45;;;;;;;55.17;16.42;;;;;;;-0.86;100.00;103209.88;5261155;28;20127;-71
2022/01/11 07:42:15;;;;;;;48.13;15.27;;;;;;;-0.79;100.00;103222.03;5271560;28;20022;-71
2022/01/11 07:44:50;;;;;;;50.13;16.52;;;;;;;-0.71;100.00;103221.84;5270451;28;20055;-71
2022/01/11 07:47:21;;;;;;;55.47;15.93;;;;;;;-0.65;100.00;103227.84;5284915;28;20031;-71
2022/01/11 07:49:52;;;;;;;44.30;14.80;;;;;;;-0.58;100.00;103218.00;5284127;28;20517;-71
2022/01/11 07:52:22;;;;;;;43.58;14.95;;;;;;;-0.52;100.00;103228.41;5283993;28;20031;-71
2022/01/11 07:54:53;;;;;;;42.47;13.27;;;;;;;-0.46;100.00;103219.47;5283869;28;20477;-71
2022/01/11 07:57:23;;;;;;;37.45;13.85;;;;;;;-0.43;100.00;103222.06;5268804;27;20042;-71
2022/01/11 07:59:54;;;;;;;33.90;13.48;;;;;;;-0.43;100.00;103220.28;5269562;28;20434;-71
2022/01/11 08:02:26;;;;;;;35.85;12.63;;;;;;;-0.33;100.00;103218.28;5281796;28;20020;-71
2022/01/11 08:04:57;;;;;;;36.75;13.38;;;;;;;-0.26;100.00;103230.41;5282235;27;20020;-71
2022/01/11 08:07:27;;;;;;;36.00;13.65;;;;;;;-0.16;100.00;103231.03;5282197;28;20019;-71
2022/01/11 08:09:58;;;;;;;34.90;12.65;;;;;;;-0.05;100.00;103235.16;5280907;27;20499;-71
2022/01/11 08:12:29;;;;;;;38.65;13.50;;;;;;;0.00;100.00;103227.13;5264986;28;20036;-71
2022/01/11 08:15:00;;;;;;;34.40;12.05;;;;;;;0.05;100.00;103229.63;5267814;28;20423;-72
2022/01/11 08:17:31;;;;;;;30.52;11.00;;;;;;;0.16;100.00;103230.22;5274705;28;20089;-71
2022/01/11 08:20:02;;;;;;;29.08;11.98;;;;;;;0.24;100.00;103226.44;5260987;28;20027;-71
2022/01/11 08:22:33;;;;;;;29.55;12.15;;;;;;;0.37;100.00;103229.63;5262580;28;20020;-71
2022/01/11 08:25:04;;;;;;;31.38;11.88;;;;;;;0.39;100.00;103229.59;5270078;28;20014;-72
2022/01/11 08:27:34;;;;;;;28.67;11.32;;;;;;;0.41;100.00;103238.34;5270439;28;20084;-71
2022/01/11 08:30:06;;;;;;;29.10;11.80;;;;;;;0.45;100.00;103242.63;5266562;28;20461;-72
2022/01/11 08:32:36;;;;;;;26.73;10.88;;;;;;;0.48;100.00;103239.91;5274683;28;20028;-71
2022/01/11 08:35:07;;;;;;;25.70;10.40;;;;;;;0.71;100.00;103245.41;5281236;28;20380;-71
2022/01/11 08:37:38;;;;;;;29.15;10.77;;;;;;;1.14;100.00;103238.84;5265346;28;20020;-72
2022/01/11 08:40:10;;;;;;;24.40;9.85;;;;;;;1.64;100.00;103244.31;5268595;28;20043;-72
2022/01/11 08:42:41;;;;;;;23.98;9.75;;;;;;;2.14;100.00;103244.38;5285020;28;20028;-72
2022/01/11 08:45:12;;;;;;;19.17;8.73;;;;;;;2.42;100.00;103243.44;5265773;27;20236;-71
2022/01/11 08:47:43;;;;;;;19.92;8.73;;;;;;;2.40;100.00;103240.81;5265846;28;20625;-72
2022/01/11 08:50:14;;;;;;;20.08;8.88;;;;;;;2.44;100.00;103244.22;5265683;28;20107;-72
2022/01/11 08:52:45;;;;;;;18.48;7.97;;;;;;;2.02;100.00;103236.88;5265074;28;20108;-72
2022/01/11 08:55:16;;;;;;;21.08;8.95;;;;;;;1.90;100.00;103242.56;5264827;28;20020;-72
2022/01/11 08:57:47;;;;;;;19.90;8.20;;;;;;;1.86;100.00;103244.47;5280270;28;20058;-71
2022/01/11 09:00:18;;;;;;;24.25;9.68;;;;;;;1.66;100.00;103239.84;5285201;28;20102;-72
2022/01/11 09:02:51;;;;;;;21.27;9.13;;;;;;;1.68;100.00;103248.59;5283826;28;20019;-72
2022/01/11 09:05:23;;;;;;;21.08;8.30;;;;;;;1.74;100.00;103245.72;5272866;28;20020;-72
2022/01/11 09:07:53;;;;;;;23.02;8.68;;;;;;;1.92;100.00;103251.34;5277519;28;20116;-71
2022/01/11 09:10:24;;;;;;;20.42;8.77;;;;;;;2.21;100.00;103259.16;5264839;28;20055;-72
2022/01/11 09:12:54;;;;;;;25.73;9.25;;;;;;;2.78;100.00;103257.13;5279585;28;20088;-71
2022/01/11 09:15:25;;;;;;;18.88;8.55;;;;;;;3.23;100.00;103250.97;5270446;28;20020;-71
2022/01/11 09:17:55;;;;;;;20.45;8.55;;;;;;;3.56;100.00;103260.22;5276710;28;20031;-71
2022/01/11 09:20:26;;;;;;;20.85;8.10;;;;;;;3.59;100.00;103260.13;5276283;28;20112;-71
2022/01/11 09:22:57;;;;;;;20.70;8.50;;;;;;;3.32;100.00;103261.25;5264492;28;20024;-72
2022/01/11 09:25:27;;;;;;;21.77;8.00;;;;;;;3.25;100.00;103270.34;5265849;28;20113;-71
2022/01/11 09:27:58;;;;;;;25.65;8.82;;;;;;;3.39;100.00;103275.97;5284628;28;20020;-72
2022/01/11 09:30:28;;;;;;;20.48;8.57;;;;;;;3.59;100.00;103272.53;5282765;28;20023;-72
2022/01/11 09:32:59;;;;;;;18.65;8.35;;;;;;;3.99;100.00;103268.25;5271388;28;20030;-72
2022/01/11 09:35:29;;;;;;;19.55;8.40;;;;;;;4.07;100.00;103264.34;5263933;28;20389;-72
2022/01/11 09:38:00;;;;;;;16.48;7.80;;;;;;;4.01;100.00;103267.22;5276103;28;20069;-72
2022/01/11 09:40:30;;;;;;;19.30;8.48;;;;;;;4.00;100.00;103268.16;5272695;27;20361;-72
2022/01/11 09:43:01;;;;;;;21.95;8.98;;;;;;;4.07;100.00;103261.69;5273580;28;20020;-71
2022/01/11 09:45:31;;;;;;;16.98;8.65;;;;;;;4.43;100.00;103266.31;5263857;28;20358;-72
2022/01/11 09:48:02;;;;;;;15.80;7.57;;;;;;;4.73;100.00;103261.44;5265217;28;20133;-72
2022/01/11 09:50:33;;;;;;;18.60;8.15;;;;;;;4.83;100.00;103265.41;5271667;28;20508;-72
2022/01/11 09:53:03;;;;;;;19.42;8.15;;;;;;;4.55;100.00;103275.56;5266806;28;20024;-72
2022/01/11 09:55:36;;;;;;;19.20;8.43;;;;;;;4.29;100.00;103276.69;5265639;28;20020;-72
2022/01/11 09:58:07;;;;;;;21.70;8.52;;;;;;;4.31;100.00;103277.47;5267286;28;20165;-72
2022/01/11 10:00:39;;;;;;;16.52;8.38;;;;;;;4.37;100.00;103282.56;5274153;28;20077;-72
2022/01/11 10:03:10;;;;;;;22.35;9.18;;;;;;;4.52;100.00;103278.31;5269169;28;20023;-72
2022/01/11 10:05:41;;;;;;;24.05;9.07;;;;;;;4.74;100.00;103283.56;5270076;28;20383;-72
2022/01/11 10:08:31;;;;;;;17.05;7.97;;;;;;;5.13;100.00;103286.22;5267979;28;20020;-72
2022/01/11 10:11:02;;;;;;;26.58;8.70;;;;;;;5.08;100.00;103282.91;5279309;28;20055;-72
2022/01/11 10:13:51;;;;;;;19.85;9.10;;;;;;;5.25;100.00;103280.31;5272100;28;20133;-72
2022/01/11 10:16:24;;;;;;;18.48;8.40;;;;;;;4.89;100.00;103273.09;5276608;28;20042;-72
2022/01/11 10:18:55;;;;;;;19.55;7.28;;;;;;;4.59;100.00;103277.16;5280887;28;20036;-72
2022/01/11 10:21:45;;;;;;;17.35;7.97;;;;;;;4.83;100.00;103289.34;5272867;28;20089;-72
2022/01/11 10:24:35;;;;;;;19.35;8.05;;;;;;;5.05;100.00;103278.56;5283450;27;20027;-72
2022/01/11 10:27:08;;;;;;;18.60;7.88;;;;;;;4.93;100.00;103274.69;5270686;28;20209;-73
2022/01/11 10:29:42;;;;;;;13.10;7.35;;;;;;;4.88;100.00;103275.84;5273815;28;20272;-72
2022/01/11 10:32:31;;;;;;;20.33;7.55;;;;;;;5.05;100.00;103280.38;5278535;28;20031;-72
2022/01/11 10:35:25;;;;;;;18.65;9.10;;;;;;;5.16;100.00;103286.06;5264680;28;20091;-72
2022/01/11 10:38:00;;;;;;;22.02;9.35;;;;;;;5.12;100.00;103296.00;5284002;28;20100;-72
2022/01/11 10:40:34;;;;;;;20.70;7.40;;;;;;;5.03;100.00;103293.75;5277005;28;20020;-72
2022/01/11 10:43:08;;;;;;;25.13;8.57;;;;;;;5.22;100.00;103291.13;5275333;28;20442;-73
2022/01/11 10:45:41;;;;;;;17.13;7.68;;;;;;;5.32;100.00;103284.41;5271367;28;20019;-73
2022/01/11 10:48:36;;;;;;;18.98;6.93;;;;;;;5.51;100.00;103295.03;5283440;28;20205;-73
2022/01/11 10:51:13;;;;;;;16.65;6.93;;;;;;;5.57;100.00;103296.53;5269406;28;20485;-72
2022/01/11 10:53:49;;;;;;;19.27;6.82;;;;;;;5.47;100.00;103290.78;5283479;28;20389;-73
2022/01/11 10:56:19;;;;;;;16.92;6.82;;;;;;;5.28;100.00;103290.81;5283189;28;20042;-72
2022/01/11 10:59:10;;;;;;;19.15;7.35;;;;;;;5.20;100.00;103298.28;5282851;27;20019;-72
2022/01/11 11:01:43;;;;;;;12.70;5.80;;;;;;;4.91;100.00;103307.59;5266343;28;20015;-73
2022/01/11 11:04:32;;;;;;;14.68;6.30;;;;;;;4.89;100.00;103313.00;5272403;28;20119;-73
2022/01/11 11:07:14;;;;;;;14.15;7.00;;;;;;;4.78;100.00;103302.00;5273446;28;20028;-73
2022/01/11 11:09:47;;;;;;;23.52;7.57;;;;;;;4.61;100.00;103299.19;5265625;27;20361;-73
2022/01/11 11:12:20;;;;;;;23.70;7.10;;;;;;;4.46;100.00;103295.41;5264545;28;20121;-72
2022/01/11 11:14:54;;;;;;;14.63;6.50;;;;;;;4.41;100.00;103295.63;5264276;28;20497;-72
2022/01/11 11:17:45;;;;;;;14.93;6.17;;;;;;;4.43;100.00;103308.84;5278165;28;20028;-73
2022/01/11 11:20:16;;;;;;;13.88;6.43;;;;;;;4.40;100.00;103308.97;5268487;28;20285;-72
2022/01/11 11:22:46;;;;;;;20.02;7.28;;;;;;;4.30;100.00;103308.50;5269651;28;20096;-72
2022/01/11 11:25:17;;;;;;;17.15;6.53;;;;;;;4.34;100.00;103311.91;5282714;28;20049;-72
2022/01/11 11:27:47;;;;;;;18.35;6.97;;;;;;;4.24;100.00;103306.13;5282916;28;20077;-73
2022/01/11 11:30:19;;;;;;;18.30;6.97;;;;;;;4.27;100.00;103306.00;5269071;28;20058;-72
2022/01/11 11:32:52;;;;;;;17.75;6.80;;;;;;;4.18;100.00;103310.84;5282154;28;20115;-73
2022/01/11 11:35:23;;;;;;;14.65;6.50;;;;;;;4.25;100.00;103310.50;5282140;28;20026;-72
2022/01/11 11:37:59;;;;;;;13.73;5.82;;;;;;;4.14;100.00;103320.72;5269742;28;20501;-72
2022/01/11 11:40:31;;;;;;;19.67;7.50;;;;;;;4.14;100.00;103313.59;5268814;28;20024;-72